createdAt,value
2023-04-26T05:46:11.934Z,10.95
2023-04-26T05:48:57.663Z,10.95
2023-04-26T05:51:43.407Z,10.45
2023-04-26T05:54:28.570Z,10.48
2023-04-26T05:57:14.079Z,10.67
2023-04-26T05:59:59.591Z,10.70
2023-04-26T06:02:48.577Z,10.78
2023-04-26T06:05:34.611Z,10.91
2023-04-26T06:08:19.659Z,11.12
2023-04-26T06:11:12.733Z,11.18
2023-04-26T06:13:57.993Z,11.16
2023-04-26T06:16:43.929Z,11.45
2023-04-26T06:19:29.226Z,11.43
2023-04-26T06:22:16.697Z,11.54
2023-04-26T06:25:02.519Z,11.48
2023-04-26T06:27:49.062Z,11.43
2023-04-26T06:30:36.751Z,11.52
2023-04-26T06:33:23.204Z,11.49
2023-04-26T06:36:20.080Z,11.51
2023-04-26T06:39:06.393Z,11.45
2023-04-26T06:41:52.623Z,11.52
2023-04-26T06:44:40.084Z,11.56
2023-04-26T06:47:25.696Z,11.75
2023-04-26T06:50:11.889Z,11.97
2023-04-26T06:52:57.626Z,11.96
2023-04-26T06:55:43.190Z,12.12
2023-04-26T06:58:28.600Z,12.26
2023-04-26T07:01:15.010Z,12.19
2023-04-26T07:04:10.964Z,12.25
2023-04-26T07:06:58.161Z,12.46
2023-04-26T07:09:44.122Z,12.54
2023-04-26T07:12:29.536Z,12.62
2023-04-26T07:15:15.154Z,12.73
2023-04-26T07:18:00.849Z,12.80
2023-04-26T07:20:46.226Z,12.99
2023-04-26T07:23:32.879Z,13.14
2023-04-26T07:26:18.266Z,13.14
2023-04-26T07:29:06.216Z,13.17
2023-04-26T07:31:57.374Z,13.14
2023-04-26T07:34:50.971Z,13.15
2023-04-26T07:37:36.653Z,13.27
2023-04-26T07:40:26.439Z,13.38
2023-04-26T07:43:15.677Z,13.42
2023-04-26T07:46:02.334Z,13.47
2023-04-26T07:48:50.116Z,13.46
2023-04-26T07:51:38.145Z,13.60
2023-04-26T07:54:28.933Z,13.90
2023-04-26T07:57:19.073Z,14.25
2023-04-26T08:00:10.368Z,14.32
2023-04-26T08:02:56.055Z,14.41
2023-04-26T08:05:56.301Z,14.35
2023-04-26T08:08:45.298Z,14.55
2023-04-26T08:11:30.658Z,14.75
2023-04-26T08:14:22.998Z,14.83
2023-04-26T08:17:12.243Z,14.95
2023-04-26T08:19:59.612Z,15.18
2023-04-26T08:22:45.134Z,15.36
2023-04-26T08:25:31.787Z,15.55
2023-04-26T08:28:18.643Z,15.95
2023-04-26T08:31:04.537Z,16.26
2023-04-26T08:33:51.161Z,16.64
2023-04-26T08:36:41.693Z,20.93
2023-04-26T08:39:27.165Z,24.28
2023-04-26T08:42:20.086Z,27.12
2023-04-26T08:45:06.507Z,28.52
2023-04-26T08:48:10.556Z,28.82
2023-04-26T08:50:56.863Z,29.24
2023-04-26T08:53:43.087Z,30.12
2023-04-26T08:56:36.288Z,27.81
2023-04-26T08:59:21.921Z,29.58
2023-04-26T09:02:08.099Z,27.93
2023-04-26T09:04:53.344Z,29.21
2023-04-26T09:07:47.083Z,28.90
2023-04-26T09:10:33.886Z,28.80
2023-04-26T09:13:19.214Z,31.28
2023-04-26T09:16:05.099Z,29.53
2023-04-26T09:18:57.351Z,30.71
2023-04-26T09:21:45.251Z,31.64
2023-04-26T09:24:57.541Z,32.06
2023-04-26T09:27:44.247Z,32.19
2023-04-26T09:30:39.457Z,32.40
2023-04-26T09:33:25.217Z,31.55
2023-04-26T09:36:13.741Z,30.16
2023-04-26T09:39:01.257Z,33.16
2023-04-26T09:41:47.595Z,34.04
2023-04-26T09:44:33.382Z,33.41
2023-04-26T09:47:18.452Z,33.27
2023-04-26T09:50:04.298Z,31.25
2023-04-26T09:52:50.319Z,32.20
2023-04-26T09:55:36.908Z,29.63
2023-04-26T09:58:23.489Z,32.32
2023-04-26T10:01:09.551Z,31.59
2023-04-26T10:03:57.819Z,31.81
2023-04-26T10:06:43.499Z,31.80
2023-04-26T10:09:29.168Z,33.60
2023-04-26T10:12:16.803Z,35.22
2023-04-26T10:15:03.845Z,36.34
2023-04-26T10:17:50.773Z,36.58
2023-04-26T10:20:42.317Z,33.83
2023-04-26T10:23:28.004Z,32.45
2023-04-26T10:26:55.044Z,33.26
2023-04-26T10:29:56.497Z,32.49
2023-04-26T10:33:02.234Z,31.03
2023-04-26T10:36:26.222Z,34.16
2023-04-26T10:39:25.151Z,34.29
2023-04-26T10:42:24.171Z,35.05
2023-04-26T10:45:27.429Z,34.50
2023-04-26T10:48:19.953Z,35.44
2023-04-26T10:51:12.804Z,37.33
2023-04-26T10:53:58.267Z,35.22
2023-04-26T10:56:47.102Z,34.13
2023-04-26T10:59:43.401Z,33.99
2023-04-26T11:03:08.137Z,36.13
2023-04-26T11:05:55.488Z,34.94
2023-04-26T11:08:41.124Z,37.47
2023-04-26T11:11:29.789Z,37.44
2023-04-26T11:14:16.402Z,36.93
2023-04-26T11:17:06.473Z,37.85
2023-04-26T11:19:51.882Z,35.25
2023-04-26T11:22:40.507Z,36.34
2023-04-26T11:25:28.289Z,34.14
2023-04-26T11:28:20.309Z,35.66
2023-04-26T11:31:07.500Z,35.06
2023-04-26T11:33:52.561Z,35.61
2023-04-26T11:36:38.789Z,34.83
2023-04-26T11:39:24.440Z,34.13
2023-04-26T11:42:11.905Z,35.78
2023-04-26T11:44:57.636Z,35.19
2023-04-26T11:47:44.353Z,32.16
2023-04-26T11:50:32.335Z,33.79
2023-04-26T11:53:18.070Z,34.97
2023-04-26T11:56:05.705Z,32.17
2023-04-26T11:58:52.675Z,33.37
2023-04-26T12:01:38.317Z,32.37
2023-04-26T12:04:30.396Z,32.68
2023-04-26T12:07:18.942Z,33.00
2023-04-26T12:10:19.081Z,32.96
2023-04-26T12:13:13.812Z,33.37
2023-04-26T12:15:59.816Z,33.12
2023-04-26T12:18:50.910Z,31.66
2023-04-26T12:21:43.132Z,31.01
2023-04-26T12:24:34.760Z,31.48
2023-04-26T12:27:21.376Z,27.87
2023-04-26T12:30:07.261Z,30.39
2023-04-26T12:32:52.434Z,31.50
2023-04-26T12:35:37.815Z,31.46
2023-04-26T12:38:23.488Z,31.90
